LFBG/CNG METAR and TAF weather

Enter ICAO airport designator
Station Type Date Time Source
LFBG METAR 2021/10/20 06:30 UTC NOAA

LFBG 200630Z AUTO 17010KT CAVOK 17/15 Q1016 NOSIG


Station Type Date Time Source
LFBG Decoded METAR 2021/10/20 06:30 UTC NOAA

Cognac, France (LFBG) 45-40N 000-19W 31M
Oct 20, 2021 - 02:30 AM EDT / 2021.10.20 0630 UTC
Wind: from the S (170 degrees) at 12 MPH (10 KT):0
Visibility: greater than 7 mile(s):0
Temperature: 62 F (17 C)
Dew Point: 59 F (15 C)
Relative Humidity: 88%
Pressure (altimeter): 30.00 in. Hg (1016 hPa)
ob: LFBG 200630Z AUTO 17010KT CAVOK 17/15 Q1016 NOSIG
cycle: 6

Station Type Date Time Source
LFBG TAF 2021/10/20 03:31 UTC NOAA

TAF LFBG 200200Z 2003/2103 19010KT CAVOK
BECMG 2013/2015 22010G20KT 4000 -RA OVC040
TEMPO 2014/2023 -SHRA SCT025TCU
BECMG 2019/2021 23020G30KT PROB40
TEMPO 2023/2102 25025G40KT
BECMG 2100/2102 9999 NSW

Example: see airport list